Time;durP1;ratioP1;P1;durP2;ratioP2;P2;SDS_P1;SDS_P2;PMS_P1;PMS_P2;Temp;Humidity;BMP_temperature;BMP_pressure;BME280_temperature;BME280_humidity;BME280_pressure;Samples;Min_cycle;Max_cycle;Signal;HPM_P1;HPM_P2
2022/03/07 00:00:17;;;;;;;;;;;;;;;22.57;21.02;97768.00;5013823;28;1123;-71
2022/03/07 00:02:43;;;;;;;;;;;;;;;21.77;22.29;97771.78;5013649;28;1041;-71
2022/03/07 00:05:08;;;;;;;;;;;;;;;22.65;20.98;97762.88;5013719;28;1028;-71
2022/03/07 00:07:33;;;;;;;;;;;;;;;22.62;20.99;97750.41;5013621;28;984;-71
2022/03/07 00:09:59;;;;;;;;;;;;;;;22.33;21.67;97756.28;5013296;28;1017;-71
2022/03/07 00:12:24;;;;;;;;;;;;;;;22.49;21.46;97766.66;5013488;28;1018;-71
2022/03/07 00:14:50;;;;;;;;;;;;;;;22.03;21.67;97761.25;5013903;28;1918;-71
2022/03/07 00:17:15;;;;;;;;;;;;;;;22.23;21.48;97749.69;5013689;28;961;-71
2022/03/07 00:19:41;;;;;;;;;;;;;;;22.71;20.97;97736.31;5056082;28;1084;-71
2022/03/07 00:22:06;;;;;;;;;;;;;;;22.63;21.34;97738.59;5056033;28;1021;-71
2022/03/07 00:24:32;;;;;;;;;;;;;;;22.97;20.77;97733.41;5072818;28;1003;-71
2022/03/07 00:26:57;;;;;;;;;;;;;;;22.64;20.99;97728.06;5023104;28;999;-71
2022/03/07 00:29:22;;;;;;;;;;;;;;;22.33;21.52;97723.03;5072913;28;1051;-71
2022/03/07 00:31:48;;;;;;;;;;;;;;;22.61;21.22;97717.63;5012855;28;1183;-71
2022/03/07 00:34:14;;;;;;;;;;;;;;;22.36;21.54;97722.13;4974929;28;1113;-71
2022/03/07 00:36:39;;;;;;;;;;;;;;;22.56;20.96;97709.72;4993139;28;1979;-71
2022/03/07 00:39:05;;;;;;;;;;;;;;;22.70;20.84;97714.88;4954400;29;1148;-71
2022/03/07 00:41:30;;;;;;;;;;;;;;;22.76;20.88;97707.38;4935137;29;1694;-71
2022/03/07 00:43:56;;;;;;;;;;;;;;;22.50;21.34;97709.50;4935229;29;1249;-71
2022/03/07 00:46:21;;;;;;;;;;;;;;;22.48;21.08;97709.16;4878269;29;927;-71
2022/03/07 00:48:47;;;;;;;;;;;;;;;22.52;21.16;97698.47;4879068;29;1019;-71
2022/03/07 00:51:14;;;;;;;;;;;;;;;22.29;21.54;97701.75;4863447;29;1117;-71
2022/03/07 00:53:39;;;;;;;;;;;;;;;21.68;22.46;97709.34;4878902;29;1029;-71
2022/03/07 00:56:07;;;;;;;;;;;;;;;22.43;21.52;97701.22;4878457;29;2057;-71
2022/03/07 00:58:32;;;;;;;;;;;;;;;22.90;20.87;97711.78;4856343;29;1246;-71
2022/03/07 01:00:58;;;;;;;;;;;;;;;22.35;21.35;97712.03;4872779;29;1094;-71
2022/03/07 01:03:23;;;;;;;;;;;;;;;22.72;20.78;97700.22;4855610;29;1376;-71
2022/03/07 01:05:49;;;;;;;;;;;;;;;22.53;21.17;97699.28;4875615;29;1145;-71
2022/03/07 01:08:14;;;;;;;;;;;;;;;22.45;21.00;97703.63;4860250;29;966;-71
2022/03/07 01:10:40;;;;;;;;;;;;;;;22.58;21.00;97701.53;4860117;29;1013;-71
2022/03/07 01:13:05;;;;;;;;;;;;;;;21.78;21.99;97701.78;4859847;29;946;-71
2022/03/07 01:15:31;;;;;;;;;;;;;;;22.34;21.18;97698.31;4899592;29;1918;-71
2022/03/07 01:17:59;;;;;;;;;;;;;;;22.26;21.16;97703.44;4915676;29;1127;-71
2022/03/07 01:20:25;;;;;;;;;;;;;;;22.26;21.05;97700.59;4878484;29;1014;-71
2022/03/07 01:22:50;;;;;;;;;;;;;;;22.51;21.38;97696.13;4878393;29;1108;-71
2022/03/07 01:25:16;;;;;;;;;;;;;;;22.20;21.62;97702.44;4878587;29;1046;-71
2022/03/07 01:27:41;;;;;;;;;;;;;;;22.51;20.90;97701.78;4878307;29;1027;-71
2022/03/07 01:30:07;;;;;;;;;;;;;;;22.57;20.89;97699.94;4892143;29;1014;-70
2022/03/07 01:32:32;;;;;;;;;;;;;;;22.66;20.91;97694.34;4897267;29;1160;-70
2022/03/07 01:34:58;;;;;;;;;;;;;;;22.64;20.71;97699.72;4897197;29;1978;-71
2022/03/07 01:37:24;;;;;;;;;;;;;;;22.77;20.57;97686.25;4897243;29;1126;-71
2022/03/07 01:39:49;;;;;;;;;;;;;;;22.80;20.43;97684.56;4897245;29;950;-71
2022/03/07 01:42:15;;;;;;;;;;;;;;;22.56;20.84;97693.47;4897225;29;1084;-71
2022/03/07 01:44:40;;;;;;;;;;;;;;;22.91;20.24;97689.88;4896836;29;1024;-71
2022/03/07 01:47:06;;;;;;;;;;;;;;;22.23;21.32;97695.84;4915756;29;1447;-71
2022/03/07 01:49:32;;;;;;;;;;;;;;;22.67;20.94;97687.44;4948277;28;1069;-71
2022/03/07 01:51:57;;;;;;;;;;;;;;;22.59;21.04;97692.56;4903442;29;988;-71
2022/03/07 01:54:23;;;;;;;;;;;;;;;22.68;20.70;97689.00;4919625;29;1906;-71
2022/03/07 01:56:51;;;;;;;;;;;;;;;22.42;20.97;97681.84;4900564;29;1264;-71
2022/03/07 01:59:17;;;;;;;;;;;;;;;22.49;20.70;97687.28;4941670;28;1493;-71
2022/03/07 02:01:43;;;;;;;;;;;;;;;22.54;21.22;97686.69;4937858;29;1364;-71
2022/03/07 02:04:08;;;;;;;;;;;;;;;22.28;21.04;97683.94;4900142;29;1156;-71
2022/03/07 02:06:35;;;;;;;;;;;;;;;22.72;20.68;97689.69;4899733;29;1301;-71
2022/03/07 02:09:02;;;;;;;;;;;;;;;22.61;20.49;97701.41;4884598;29;1431;-71
2022/03/07 02:11:34;;;;;;;;;;;;;;;22.64;20.80;97699.72;4862530;29;1014;-71
2022/03/07 02:14:11;;;;;;;;;;;;;;;22.42;20.84;97696.03;4862656;29;1131;-71
2022/03/07 02:16:37;;;;;;;;;;;;;;;22.26;21.07;97703.44;4862233;29;1911;-71
2022/03/07 02:19:02;;;;;;;;;;;;;;;22.38;20.97;97692.50;4846686;29;1219;-71
2022/03/07 02:21:30;;;;;;;;;;;;;;;22.21;20.77;97689.84;4862449;29;1151;-71
2022/03/07 02:24:07;;;;;;;;;;;;;;;22.40;21.01;97692.88;4868071;29;1244;-71
2022/03/07 02:26:35;;;;;;;;;;;;;;;22.60;20.54;97699.81;4881216;29;1287;-71
2022/03/07 02:29:02;;;;;;;;;;;;;;;22.85;20.26;97710.28;4844631;29;1328;-71
2022/03/07 02:31:30;;;;;;;;;;;;;;;22.71;20.47;97699.44;4862955;29;1632;-71
2022/03/07 02:33:57;;;;;;;;;;;;;;;22.72;20.45;97712.38;4899150;29;1083;-71
2022/03/07 02:36:23;;;;;;;;;;;;;;;22.59;20.50;97717.31;4870894;29;1903;-71
2022/03/07 02:38:49;;;;;;;;;;;;;;;22.43;20.89;97711.78;4825253;29;1301;-71
2022/03/07 02:41:15;;;;;;;;;;;;;;;22.76;20.38;97698.06;4825306;29;1630;-71
2022/03/07 02:43:40;;;;;;;;;;;;;;;22.93;20.08;97710.03;4820094;29;1140;-71
2022/03/07 02:46:06;;;;;;;;;;;;;;;22.44;20.64;97710.53;4898089;29;1079;-71
2022/03/07 02:48:32;;;;;;;;;;;;;;;22.02;21.31;97699.34;4915633;29;1116;-71
2022/03/07 02:50:58;;;;;;;;;;;;;;;22.00;21.40;97702.66;4918260;29;1177;-70
2022/03/07 02:53:24;;;;;;;;;;;;;;;22.57;20.68;97699.94;4899470;29;1254;-70
2022/03/07 02:55:49;;;;;;;;;;;;;;;22.46;20.56;97702.38;4899547;29;1907;-71
2022/03/07 02:58:15;;;;;;;;;;;;;;;22.40;20.86;97712.72;4899114;29;1297;-71
2022/03/07 03:00:40;;;;;;;;;;;;;;;22.29;20.94;97713.88;4883789;29;1359;-71
2022/03/07 03:03:06;;;;;;;;;;;;;;;22.79;20.41;97705.63;4880575;29;1159;-71
2022/03/07 03:05:31;;;;;;;;;;;;;;;22.49;20.58;97709.97;4926709;29;1100;-71
2022/03/07 03:07:57;;;;;;;;;;;;;;;22.20;21.03;97710.94;4937196;29;921;-71
2022/03/07 03:10:22;;;;;;;;;;;;;;;22.45;20.93;97703.63;4937313;29;1014;-71
2022/03/07 03:12:48;;;;;;;;;;;;;;;22.43;20.83;97712.56;4937221;29;1027;-71
2022/03/07 03:15:13;;;;;;;;;;;;;;;22.24;20.92;97711.59;4974932;28;1911;-71
2022/03/07 03:17:40;;;;;;;;;;;;;;;22.63;20.45;97712.28;4989114;28;1191;-71
2022/03/07 03:20:05;;;;;;;;;;;;;;;22.99;19.90;97719.53;4994519;28;1173;-71
2022/03/07 03:22:32;;;;;;;;;;;;;;;22.47;20.44;97712.44;4994743;28;999;-71
2022/03/07 03:24:57;;;;;;;;;;;;;;;22.16;20.92;97713.09;5008976;28;974;-71
2022/03/07 03:27:22;;;;;;;;;;;;;;;22.20;21.11;97710.13;4994442;28;1001;-71
2022/03/07 03:29:48;;;;;;;;;;;;;;;22.71;20.46;97716.47;4994633;28;954;-71
2022/03/07 03:32:13;;;;;;;;;;;;;;;22.67;20.50;97710.13;5023309;28;1253;-71
2022/03/07 03:34:39;;;;;;;;;;;;;;;22.54;20.68;97709.38;5033781;28;1918;-71
2022/03/07 03:37:05;;;;;;;;;;;;;;;22.16;21.20;97724.41;5035339;28;974;-71
2022/03/07 03:39:30;;;;;;;;;;;;;;;22.11;21.18;97725.00;5053723;28;954;-71
2022/03/07 03:41:56;;;;;;;;;;;;;;;22.16;21.08;97726.47;5053825;28;1327;-71
2022/03/07 03:44:21;;;;;;;;;;;;;;;22.06;21.26;97723.50;5053709;28;1010;-71
2022/03/07 03:46:47;;;;;;;;;;;;;;;22.30;20.63;97721.13;5039006;28;1094;-71
2022/03/07 03:49:12;;;;;;;;;;;;;;;22.46;20.50;97719.38;5033408;28;992;-71
2022/03/07 03:51:37;;;;;;;;;;;;;;;22.58;20.59;97707.19;5033727;28;930;-71
2022/03/07 03:54:03;;;;;;;;;;;;;;;23.11;19.69;97713.03;5033855;28;963;-71
2022/03/07 03:56:28;;;;;;;;;;;;;;;22.66;20.48;97708.53;5033161;28;1909;-71
2022/03/07 03:58:54;;;;;;;;;;;;;;;22.61;20.61;97711.97;5063947;28;1104;-71
2022/03/07 04:01:19;;;;;;;;;;;;;;;22.49;20.67;97707.13;5075823;28;975;-71
2022/03/07 04:03:45;;;;;;;;;;;;;;;22.17;20.96;97677.81;5075505;28;930;-71
2022/03/07 04:06:10;;;;;;;;;;;;;;;22.55;20.75;97710.97;5075911;28;943;-71
2022/03/07 04:08:39;;;;;;;;;;;;;;;22.28;20.66;97706.63;5075791;28;1081;-71
2022/03/07 04:11:13;;;;;;;;;;;;;;;22.30;20.84;97709.78;5073103;28;1100;-71
2022/03/07 04:13:38;;;;;;;;;;;;;;;22.06;20.83;97714.19;5075167;28;923;-71
2022/03/07 04:16:04;;;;;;;;;;;;;;;22.57;20.70;97716.97;5075248;28;1917;-71
2022/03/07 04:18:29;;;;;;;;;;;;;;;22.41;20.54;97719.97;5075844;28;944;-71
2022/03/07 04:20:55;;;;;;;;;;;;;;;22.23;20.97;97714.91;5075723;28;1072;-71
2022/03/07 04:23:22;;;;;;;;;;;;;;;22.52;20.57;97714.69;5075667;28;970;-71
2022/03/07 04:25:48;;;;;;;;;;;;;;;22.44;20.71;97711.34;5075746;28;926;-71
2022/03/07 04:28:13;;;;;;;;;;;;;;;22.52;20.23;97709.81;5074025;28;1000;-71
2022/03/07 04:30:39;;;;;;;;;;;;;;;22.32;20.49;97712.16;5075344;28;891;-71
2022/03/07 04:33:04;;;;;;;;;;;;;;;22.35;20.62;97712.03;5103332;28;1178;-71
2022/03/07 04:35:30;;;;;;;;;;;;;;;22.36;20.68;97702.28;5115930;28;1985;-71
2022/03/07 04:37:55;;;;;;;;;;;;;;;22.39;20.79;97705.47;5116267;28;957;-71
2022/03/07 04:40:21;;;;;;;;;;;;;;;22.33;20.73;97708.88;5115993;28;944;-71
2022/03/07 04:42:46;;;;;;;;;;;;;;;22.36;20.66;97713.59;5079873;28;987;-71
2022/03/07 04:45:12;;;;;;;;;;;;;;;22.43;20.47;97701.22;5115326;28;1133;-71
2022/03/07 04:47:37;;;;;;;;;;;;;;;22.64;20.06;97711.06;5063027;28;1096;-71
2022/03/07 04:50:03;;;;;;;;;;;;;;;21.94;21.19;97709.34;5115699;28;933;-71
2022/03/07 04:52:29;;;;;;;;;;;;;;;22.43;20.56;97711.78;5116089;28;991;-71
2022/03/07 04:54:54;;;;;;;;;;;;;;;22.19;21.05;97714.22;5116044;28;1976;-71
2022/03/07 04:57:20;;;;;;;;;;;;;;;22.02;20.96;97717.16;5115276;28;1557;-71
2022/03/07 04:59:45;;;;;;;;;;;;;;;21.77;21.21;97706.63;5116078;28;1023;-71
2022/03/07 05:02:13;;;;;;;;;;;;;;;22.59;20.58;97709.59;5115241;28;1163;-71
2022/03/07 05:04:38;;;;;;;;;;;;;;;22.69;20.04;97712.47;5012528;28;1074;-71
2022/03/07 05:07:04;;;;;;;;;;;;;;;22.60;20.04;97704.72;5012813;28;1138;-71
2022/03/07 05:09:29;;;;;;;;;;;;;;;23.09;19.71;97712.69;5012985;28;924;-71
2022/03/07 05:11:55;;;;;;;;;;;;;;;22.14;20.73;97701.41;5012995;28;997;-71
2022/03/07 05:14:20;;;;;;;;;;;;;;;22.16;21.00;97704.59;5012986;28;1137;-71
2022/03/07 05:16:45;;;;;;;;;;;;;;;22.67;20.48;97698.78;5012697;28;1902;-71
2022/03/07 05:19:11;;;;;;;;;;;;;;;22.66;19.99;97696.41;5012489;28;979;-71
2022/03/07 05:21:37;;;;;;;;;;;;;;;22.54;20.29;97695.22;5012893;28;954;-71
2022/03/07 05:24:02;;;;;;;;;;;;;;;22.45;20.21;97692.28;5014747;28;936;-71
2022/03/07 05:26:28;;;;;;;;;;;;;;;22.73;20.18;97696.13;5016655;28;1011;-71
2022/03/07 05:28:53;;;;;;;;;;;;;;;22.16;20.78;97698.91;5016577;28;932;-71
2022/03/07 05:31:19;;;;;;;;;;;;;;;22.28;20.88;97689.63;5016513;28;1105;-71
2022/03/07 05:33:44;;;;;;;;;;;;;;;22.18;20.78;97685.09;4983680;28;1335;-71
2022/03/07 05:36:09;;;;;;;;;;;;;;;22.03;21.03;97683.97;5090748;28;1977;-71
2022/03/07 05:38:35;;;;;;;;;;;;;;;22.36;20.78;97685.25;5119342;28;973;-71
2022/03/07 05:41:01;;;;;;;;;;;;;;;22.67;20.24;97690.25;5119351;28;928;-71
2022/03/07 05:43:26;;;;;;;;;;;;;;;21.98;21.18;97687.38;5119220;28;892;-71
2022/03/07 05:45:52;;;;;;;;;;;;;;;22.53;20.42;97682.25;5119188;28;903;-71
2022/03/07 05:48:17;;;;;;;;;;;;;;;22.40;20.50;97682.31;5119269;28;971;-71
2022/03/07 05:50:42;;;;;;;;;;;;;;;22.48;20.31;97691.34;5118835;28;1008;-70
2022/03/07 05:53:08;;;;;;;;;;;;;;;21.94;21.12;97692.34;5119315;28;948;-71
2022/03/07 05:55:33;;;;;;;;;;;;;;;21.90;21.11;97689.63;5075902;28;1980;-71
2022/03/07 05:58:02;;;;;;;;;;;;;;;22.24;20.46;97699.47;5075921;28;1108;-71
2022/03/07 06:00:27;;;;;;;;;;;;;;;22.61;20.38;97687.22;5075291;28;1211;-71
2022/03/07 06:02:53;;;;;;;;;;;;;;;22.71;20.04;97693.78;5076074;28;950;-71
2022/03/07 06:05:19;;;;;;;;;;;;;;;22.30;20.49;97695.59;5076016;28;1234;-71
2022/03/07 06:07:44;;;;;;;;;;;;;;;22.58;20.58;97695.84;5075320;28;1158;-71
2022/03/07 06:10:10;;;;;;;;;;;;;;;22.43;20.21;97689.09;5075706;28;979;-71
2022/03/07 06:12:36;;;;;;;;;;;;;;;22.71;20.23;97692.97;5075353;28;991;-71
2022/03/07 06:15:03;;;;;;;;;;;;;;;22.98;20.05;97696.06;5075479;28;1964;-70
2022/03/07 06:17:30;;;;;;;;;;;;;;;22.76;20.06;97690.34;5075314;28;942;-71
2022/03/07 06:19:55;;;;;;;;;;;;;;;22.54;20.46;97689.53;5075487;28;975;-71
2022/03/07 06:22:20;;;;;;;;;;;;;;;22.21;20.82;97678.50;5075054;28;1031;-71
2022/03/07 06:24:46;;;;;;;;;;;;;;;22.42;20.64;97690.34;5075353;28;984;-71
2022/03/07 06:27:11;;;;;;;;;;;;;;;23.06;19.69;97685.25;5108030;28;1021;-72
2022/03/07 06:29:37;;;;;;;;;;;;;;;22.28;20.47;97683.16;5118106;28;833;-72
2022/03/07 06:32:02;;;;;;;;;;;;;;;22.44;20.56;97685.03;5081871;28;1380;-72
2022/03/07 06:34:28;;;;;;;;;;;;;;;22.48;20.35;97694.19;5074452;28;1027;-72
2022/03/07 06:36:53;;;;;;;;;;;;;;;22.19;20.95;97686.69;5074579;28;1922;-72
2022/03/07 06:39:19;;;;;;;;;;;;;;;22.52;20.28;97680.69;5075115;28;1054;-72
2022/03/07 06:41:44;;;;;;;;;;;;;;;22.57;20.26;97683.72;5075074;28;977;-72
2022/03/07 06:44:09;;;;;;;;;;;;;;;22.70;20.64;97675.19;5074895;28;943;-72
2022/03/07 06:46:35;;;;;;;;;;;;;;;22.43;20.54;97678.53;5075113;28;1077;-72
2022/03/07 06:49:00;;;;;;;;;;;;;;;22.41;20.79;97680.28;5074932;28;967;-72
2022/03/07 06:51:26;;;;;;;;;;;;;;;22.28;21.03;97683.94;5074908;28;1030;-72
2022/03/07 06:53:51;;;;;;;;;;;;;;;22.30;20.42;97687.09;5074957;28;978;-72
2022/03/07 06:56:17;;;;;;;;;;;;;;;21.96;21.11;97684.97;5074623;28;1910;-72
2022/03/07 06:58:44;;;;;;;;;;;;;;;22.50;20.57;97683.19;5074351;28;1050;-72
2022/03/07 07:01:10;;;;;;;;;;;;;;;22.43;20.46;97677.75;5074500;28;1018;-72
2022/03/07 07:03:35;;;;;;;;;;;;;;;22.53;20.25;97676.59;5074557;28;1579;-72
2022/03/07 07:06:00;;;;;;;;;;;;;;;22.54;20.41;97675.34;5105753;28;1041;-72
2022/03/07 07:08:26;;;;;;;;;;;;;;;22.43;20.40;97672.09;5117557;28;993;-72
2022/03/07 07:10:51;;;;;;;;;;;;;;;22.34;20.65;97681.31;5117246;28;1034;-72
2022/03/07 07:13:17;;;;;;;;;;;;;;;22.52;20.75;97686.34;5116994;28;1071;-72
2022/03/07 07:15:42;;;;;;;;;;;;;;;22.30;20.81;97672.94;5117270;28;1910;-72
2022/03/07 07:18:07;;;;;;;;;;;;;;;22.55;20.40;97671.28;5117345;28;957;-73
2022/03/07 07:20:33;;;;;;;;;;;;;;;22.39;20.48;97669.41;5117410;28;901;-72
2022/03/07 07:22:58;;;;;;;;;;;;;;;22.75;20.23;97677.44;5073837;28;961;-72
2022/03/07 07:25:24;;;;;;;;;;;;;;;22.38;20.80;97676.28;5074151;28;998;-72
2022/03/07 07:27:49;;;;;;;;;;;;;;;22.58;20.58;97668.28;5073970;28;942;-72
2022/03/07 07:30:14;;;;;;;;;;;;;;;22.68;20.60;97669.16;5074471;28;1045;-72
2022/03/07 07:32:40;;;;;;;;;;;;;;;22.37;20.59;97666.22;5073585;28;1183;-72
2022/03/07 07:35:07;;;;;;;;;;;;;;;22.63;20.52;97669.75;5073888;28;1914;-72
2022/03/07 07:37:32;;;;;;;;;;;;;;;22.94;20.03;97661.34;5073941;28;1025;-72
2022/03/07 07:39:57;;;;;;;;;;;;;;;22.67;20.27;97661.91;5073865;28;965;-72
2022/03/07 07:42:23;;;;;;;;;;;;;;;22.91;20.26;97655.81;5074115;28;1006;-72
2022/03/07 07:44:48;;;;;;;;;;;;;;;22.61;20.29;97655.25;5073659;28;1012;-72
2022/03/07 07:47:14;;;;;;;;;;;;;;;22.18;20.88;97659.59;5073683;28;990;-72
2022/03/07 07:49:39;;;;;;;;;;;;;;;22.84;20.13;97657.63;5056517;28;976;-72
2022/03/07 07:52:05;;;;;;;;;;;;;;;22.74;20.28;97646.66;5073481;28;1002;-72
2022/03/07 07:54:31;;;;;;;;;;;;;;;22.63;20.53;97652.72;5104765;28;911;-72
2022/03/07 07:56:58;;;;;;;;;;;;;;;22.84;20.34;97657.63;5116461;28;1902;-72
2022/03/07 07:59:23;;;;;;;;;;;;;;;23.00;19.86;97653.03;5116376;28;932;-72
2022/03/07 08:01:49;;;;;;;;;;;;;;;23.12;19.76;97649.34;5116619;28;1005;-72
2022/03/07 08:04:14;;;;;;;;;;;;;;;22.57;20.59;97648.91;5080446;28;1049;-72
2022/03/07 08:06:40;;;;;;;;;;;;;;;22.85;20.39;97649.91;5116265;28;985;-73
2022/03/07 08:09:05;;;;;;;;;;;;;;;22.30;20.73;97658.75;5116438;28;901;-72
2022/03/07 08:11:31;;;;;;;;;;;;;;;22.29;20.83;97653.56;5116260;28;1008;-72
2022/03/07 08:13:56;;;;;;;;;;;;;;;22.88;20.07;97658.31;5116109;28;975;-72
2022/03/07 08:16:22;;;;;;;;;;;;;;;22.71;20.52;97648.41;5116324;28;1984;-72
2022/03/07 08:18:47;;;;;;;;;;;;;;;22.24;21.08;97652.09;5116265;28;896;-72
2022/03/07 08:21:13;;;;;;;;;;;;;;;22.63;20.32;97641.38;5116271;28;891;-72
2022/03/07 08:23:38;;;;;;;;;;;;;;;22.67;20.34;97646.94;5098019;28;942;-72
2022/03/07 08:26:03;;;;;;;;;;;;;;;22.43;20.67;97655.88;5116138;28;982;-72
2022/03/07 08:28:29;;;;;;;;;;;;;;;22.80;20.01;97656.19;5116085;28;990;-72
2022/03/07 08:30:54;;;;;;;;;;;;;;;22.80;20.37;97651.31;5116166;28;938;-72
2022/03/07 08:33:20;;;;;;;;;;;;;;;22.72;20.49;97654.84;5116458;28;1054;-72
2022/03/07 08:35:46;;;;;;;;;;;;;;;22.33;20.82;97652.19;5115733;28;1904;-72
2022/03/07 08:38:11;;;;;;;;;;;;;;;22.36;20.60;97656.91;5116061;28;920;-72
2022/03/07 08:40:37;;;;;;;;;;;;;;;22.77;20.37;97651.44;5115558;28;955;-72
2022/03/07 08:43:02;;;;;;;;;;;;;;;22.46;20.67;97654.16;5115646;28;955;-72
2022/03/07 08:45:27;;;;;;;;;;;;;;;22.28;20.80;97655.59;5072723;28;1111;-72
2022/03/07 08:47:53;;;;;;;;;;;;;;;22.39;20.96;97655.22;5068930;28;1442;-72
2022/03/07 08:50:19;;;;;;;;;;;;;;;22.40;20.73;97653.19;5052902;28;1038;-72
2022/03/07 08:52:44;;;;;;;;;;;;;;;22.17;20.99;97660.03;5053169;28;1016;-72
2022/03/07 08:55:10;;;;;;;;;;;;;;;22.40;20.72;97662.47;5052767;28;1906;-72
2022/03/07 08:57:36;;;;;;;;;;;;;;;22.32;20.93;97661.91;5052708;28;976;-72
2022/03/07 09:00:01;;;;;;;;;;;;;;;22.44;20.79;97656.69;5056415;28;947;-72
2022/03/07 09:02:26;;;;;;;;;;;;;;;22.71;20.32;97647.59;5057130;28;1039;-72
2022/03/07 09:04:52;;;;;;;;;;;;;;;22.65;20.71;97646.63;5060548;28;1421;-72
2022/03/07 09:07:17;;;;;;;;;;;;;;;22.98;20.09;97655.53;5077051;28;1039;-72
2022/03/07 09:09:43;;;;;;;;;;;;;;;22.27;20.68;97647.53;5076735;28;970;-72
2022/03/07 09:12:08;;;;;;;;;;;;;;;22.23;20.82;97642.00;5076458;28;976;-72
2022/03/07 09:14:34;;;;;;;;;;;;;;;22.81;20.18;97647.22;5076591;28;1001;-72
2022/03/07 09:16:59;;;;;;;;;;;;;;;22.49;20.54;97642.72;5107711;28;1922;-72
2022/03/07 09:19:25;;;;;;;;;;;;;;;22.75;20.29;97636.94;5119716;28;989;-72
2022/03/07 09:21:50;;;;;;;;;;;;;;;22.55;20.60;97634.41;5119631;28;958;-73
2022/03/07 09:24:16;;;;;;;;;;;;;;;22.42;20.89;97648.63;5119629;28;996;-72
2022/03/07 09:26:41;;;;;;;;;;;;;;;22.55;20.30;97640.06;5076140;28;1189;-73
2022/03/07 09:29:07;;;;;;;;;;;;;;;23.01;19.90;97631.94;5076159;28;1203;-72
2022/03/07 09:31:32;;;;;;;;;;;;;;;22.24;20.97;97640.75;5076018;28;1099;-72
2022/03/07 09:33:58;;;;;;;;;;;;;;;22.50;20.68;97632.16;5076438;28;1016;-72
2022/03/07 09:36:23;;;;;;;;;;;;;;;22.72;20.62;97638.63;5076038;28;2287;-72
2022/03/07 09:38:50;;;;;;;;;;;;;;;23.05;19.85;97639.06;5076252;28;979;-72
2022/03/07 09:41:18;;;;;;;;;;;;;;;22.95;20.30;97633.75;5075640;28;1016;-72
2022/03/07 09:43:44;;;;;;;;;;;;;;;22.44;20.69;97631.16;5076030;28;862;-72
2022/03/07 09:46:09;;;;;;;;;;;;;;;22.59;20.40;97629.41;5075837;28;1018;-72
2022/03/07 09:48:35;;;;;;;;;;;;;;;22.60;20.48;97636.66;5075993;28;943;-72
2022/03/07 09:51:00;;;;;;;;;;;;;;;22.61;20.66;97635.41;5075719;28;1056;-72
2022/03/07 09:53:26;;;;;;;;;;;;;;;23.13;19.69;97631.03;5075860;28;1075;-72
2022/03/07 09:55:51;;;;;;;;;;;;;;;22.43;20.73;97638.06;5075450;28;1913;-72
2022/03/07 09:58:17;;;;;;;;;;;;;;;22.44;20.92;97631.16;5108129;28;1017;-72
2022/03/07 10:00:43;;;;;;;;;;;;;;;22.41;20.86;97630.03;5119142;28;920;-72
2022/03/07 10:03:12;;;;;;;;;;;;;;;22.77;20.60;97637.25;5118890;28;912;-72
2022/03/07 10:05:38;;;;;;;;;;;;;;;22.54;20.36;97638.50;5075584;28;992;-72
2022/03/07 10:08:04;;;;;;;;;;;;;;;22.70;20.23;97626.97;5075627;28;974;-72
2022/03/07 10:10:30;;;;;;;;;;;;;;;22.67;20.45;97630.72;5074045;28;1031;-72
2022/03/07 10:12:55;;;;;;;;;;;;;;;22.92;20.06;97629.03;5075843;28;957;-72
2022/03/07 10:15:21;;;;;;;;;;;;;;;22.81;20.20;97629.41;5063626;28;1979;-72
2022/03/07 10:17:48;;;;;;;;;;;;;;;22.77;20.44;97623.06;5072493;28;1032;-72
2022/03/07 10:20:13;;;;;;;;;;;;;;;22.63;20.38;97633.66;5055067;28;1025;-72
2022/03/07 10:22:45;;;;;;;;;;;;;;;22.73;20.23;97623.19;5055337;28;992;-72
2022/03/07 10:25:11;;;;;;;;;;;;;;;22.74;20.39;97629.66;5055099;28;1003;-72
2022/03/07 10:27:40;;;;;;;;;;;;;;;22.92;20.18;97618.47;5055300;28;1090;-72
2022/03/07 10:30:26;;;;;;;;;;;;;;;22.77;19.98;97618.19;5055196;28;1016;-72
2022/03/07 10:32:55;;;;;;;;;;;;;;;22.56;20.33;97619.75;5054890;28;1044;-72
2022/03/07 10:35:22;;;;;;;;;;;;;;;22.77;20.17;97612.50;5054834;28;1965;-72
2022/03/07 10:37:47;;;;;;;;;;;;;;;22.91;19.93;97621.78;5015054;28;957;-71
2022/03/07 10:40:19;;;;;;;;;;;;;;;22.79;20.25;97612.81;5015239;28;960;-72
2022/03/07 10:42:45;;;;;;;;;;;;;;;22.88;20.10;97614.97;4995455;28;1182;-72
2022/03/07 10:45:11;;;;;;;;;;;;;;;22.47;20.57;97614.00;4975893;28;947;-72
2022/03/07 10:47:36;;;;;;;;;;;;;;;22.79;20.35;97604.31;4976108;28;1324;-71
2022/03/07 10:50:03;;;;;;;;;;;;;;;22.48;20.32;97606.28;4975866;28;1015;-72
2022/03/07 10:52:38;;;;;;;;;;;;;;;22.98;19.75;97598.78;4975928;28;914;-72
2022/03/07 10:55:08;;;;;;;;;;;;;;;22.69;20.34;97593.38;4948584;28;1984;-72
2022/03/07 10:57:37;;;;;;;;;;;;;;;22.89;20.14;97602.34;4946827;29;1211;-72
2022/03/07 11:00:03;;;;;;;;;;;;;;;22.75;20.35;97603.69;4938547;29;1249;-71
2022/03/07 11:02:36;;;;;;;;;;;;;;;22.82;20.21;97603.41;4934198;29;1240;-72
2022/03/07 11:05:01;;;;;;;;;;;;;;;22.35;20.61;97597.84;4936195;29;1327;-72
2022/03/07 11:07:27;;;;;;;;;;;;;;;22.65;20.64;97599.19;4935977;29;1177;-72
2022/03/07 11:09:53;;;;;;;;;;;;;;;22.83;20.32;97598.50;4946406;28;1239;-72
2022/03/07 11:12:18;;;;;;;;;;;;;;;22.38;20.64;97590.47;4965464;28;1258;-71
2022/03/07 11:14:44;;;;;;;;;;;;;;;22.48;20.77;97589.28;4981317;28;1915;-71
2022/03/07 11:17:13;;;;;;;;;;;;;;;22.57;20.35;97606.38;5001683;28;1361;-72
2022/03/07 11:19:38;;;;;;;;;;;;;;;22.30;20.69;97602.06;5004634;28;1230;-72
2022/03/07 11:22:04;;;;;;;;;;;;;;;22.33;20.68;97597.53;5005011;28;1344;-72
2022/03/07 11:24:30;;;;;;;;;;;;;;;22.87;20.23;97582.16;5003988;28;1281;-72
2022/03/07 11:26:55;;;;;;;;;;;;;;;22.70;20.47;97590.09;5003788;28;1294;-72
2022/03/07 11:29:41;;;;;;;;;;;;;;;22.82;20.30;97585.59;5001972;28;1297;-72
2022/03/07 11:32:13;;;;;;;;;;;;;;;22.80;20.00;97585.28;5001862;28;1558;-72
2022/03/07 11:34:38;;;;;;;;;;;;;;;22.94;20.27;97586.78;5002508;28;1246;-72
2022/03/07 11:37:15;;;;;;;;;;;;;;;22.12;20.67;97511.22;5003954;28;1975;-72
2022/03/07 11:39:40;;;;;;;;;;;;;;;21.99;21.05;97567.13;5011799;28;1226;-72
2022/03/07 11:42:07;;;;;;;;;;;;;;;22.58;20.70;97577.53;5027908;28;1336;-73
2022/03/07 11:44:32;;;;;;;;;;;;;;;22.64;20.25;97574.94;5033957;28;1043;-73
2022/03/07 11:47:06;;;;;;;;;;;;;;;22.04;21.27;97583.53;5096517;28;886;-73
2022/03/07 11:49:31;;;;;;;;;;;;;;;22.73;20.49;97577.00;5078270;28;928;-73
2022/03/07 11:51:58;;;;;;;;;;;;;;;22.36;20.52;97588.88;5096705;28;1086;-73
2022/03/07 11:54:23;;;;;;;;;;;;;;;22.74;20.54;97585.09;5096463;28;916;-73
2022/03/07 11:56:49;;;;;;;;;;;;;;;22.22;20.81;97583.72;5095864;28;1905;-73
2022/03/07 11:59:15;;;;;;;;;;;;;;;22.75;20.45;97581.00;5095819;28;952;-73
2022/03/07 12:01:50;;;;;;;;;;;;;;;22.61;20.40;97587.19;5096526;28;888;-71
2022/03/07 12:04:16;;;;;;;;;;;;;;;22.71;20.34;97579.53;5095789;28;991;-73
2022/03/07 12:06:42;;;;;;;;;;;;;;;22.60;20.61;97580.72;5096107;28;959;-73
2022/03/07 12:09:09;;;;;;;;;;;;;;;22.32;20.94;97588.22;5059939;28;1109;-73
2022/03/07 12:11:35;;;;;;;;;;;;;;;22.77;19.99;97586.19;5096214;28;919;-73
2022/03/07 12:14:03;;;;;;;;;;;;;;;22.62;20.38;97583.09;5096277;28;879;-73
2022/03/07 12:16:29;;;;;;;;;;;;;;;22.86;20.45;97581.38;5095994;28;1994;-73
2022/03/07 12:19:04;;;;;;;;;;;;;;;22.79;20.31;97580.84;5095877;28;926;-73
2022/03/07 12:21:30;;;;;;;;;;;;;;;23.00;20.23;97584.91;5095505;28;1010;-73
2022/03/07 12:23:55;;;;;;;;;;;;;;;22.65;20.20;97581.41;5095731;28;926;-73
2022/03/07 12:26:21;;;;;;;;;;;;;;;22.29;20.93;97579.88;5095837;28;910;-73
2022/03/07 12:28:48;;;;;;;;;;;;;;;22.60;20.69;97579.94;5095801;28;982;-73
2022/03/07 12:31:13;;;;;;;;;;;;;;;22.40;20.60;97576.63;5095834;28;1002;-73
2022/03/07 12:33:41;;;;;;;;;;;;;;;22.60;20.72;97574.28;5094459;28;1083;-73
2022/03/07 12:36:09;;;;;;;;;;;;;;;22.73;20.30;97577.81;5052556;28;1906;-73
2022/03/07 12:38:42;;;;;;;;;;;;;;;22.90;19.94;97583.28;5052972;28;953;-73
2022/03/07 12:41:09;;;;;;;;;;;;;;;22.52;20.52;97581.44;5053166;28;982;-73
2022/03/07 12:43:34;;;;;;;;;;;;;;;22.46;20.80;97586.13;5036146;28;1012;-73
2022/03/07 12:46:00;;;;;;;;;;;;;;;22.69;20.43;97588.50;5052833;28;1099;-73
2022/03/07 12:48:34;;;;;;;;;;;;;;;22.72;20.39;97581.91;5052805;28;1202;-73
2022/03/07 12:51:04;;;;;;;;;;;;;;;21.74;21.50;97582.94;5052790;28;1021;-73
2022/03/07 12:53:29;;;;;;;;;;;;;;;22.69;20.57;97580.00;5052660;28;987;-73